sensor_id;sensor_type;location;lat;lon;timestamp;pressure;altitude;pressure_sealevel;temperature;humidity
7836;BME280;3963;42.658;23.298;2023-06-14T00:02:04;110831.34;;;-144.44;100.00
7836;BME280;3963;42.658;23.298;2023-06-14T00:04:34;110831.34;;;-144.44;100.00
7836;BME280;3963;42.658;23.298;2023-06-14T00:07:01;110831.34;;;-144.44;100.00
7836;BME280;3963;42.658;23.298;2023-06-14T00:09:29;110831.34;;;-144.44;100.00
7836;BME280;3963;42.658;23.298;2023-06-14T00:11:56;110831.34;;;-144.44;100.00
7836;BME280;3963;42.658;23.298;2023-06-14T00:14:23;110829.34;;;-144.44;100.00
7836;BME280;3963;42.658;23.298;2023-06-14T00:16:50;110831.34;;;-144.44;100.00
7836;BME280;3963;42.658;23.298;2023-06-14T00:19:17;110829.34;;;-144.44;100.00
7836;BME280;3963;42.658;23.298;2023-06-14T00:21:45;110831.34;;;-144.44;100.00
7836;BME280;3963;42.658;23.298;2023-06-14T00:24:12;110831.34;;;-144.44;100.00
7836;BME280;3963;42.658;23.298;2023-06-14T00:26:40;110831.34;;;-144.44;100.00
7836;BME280;3963;42.658;23.298;2023-06-14T00:29:08;110831.34;;;-144.44;100.00
7836;BME280;3963;42.658;23.298;2023-06-14T00:31:34;110831.34;;;-144.44;100.00
7836;BME280;3963;42.658;23.298;2023-06-14T00:34:01;110831.34;;;-144.44;100.00
7836;BME280;3963;42.658;23.298;2023-06-14T00:36:29;110831.34;;;-144.44;100.00
7836;BME280;3963;42.658;23.298;2023-06-14T00:38:55;110831.34;;;-144.44;100.00
7836;BME280;3963;42.658;23.298;2023-06-14T00:41:22;110831.34;;;-144.44;100.00
7836;BME280;3963;42.658;23.298;2023-06-14T00:43:51;110831.34;;;-144.44;100.00
7836;BME280;3963;42.658;23.298;2023-06-14T00:46:21;110831.34;;;-144.44;100.00
7836;BME280;3963;42.658;23.298;2023-06-14T00:48:48;110831.34;;;-144.44;100.00
7836;BME280;3963;42.658;23.298;2023-06-14T00:51:15;110831.34;;;-144.44;100.00
7836;BME280;3963;42.658;23.298;2023-06-14T00:53:42;110831.34;;;-144.44;100.00
7836;BME280;3963;42.658;23.298;2023-06-14T00:56:12;110831.34;;;-144.44;100.00
7836;BME280;3963;42.658;23.298;2023-06-14T00:58:40;110831.34;;;-144.44;100.00
7836;BME280;3963;42.658;23.298;2023-06-14T01:01:10;110831.34;;;-144.44;100.00
7836;BME280;3963;42.658;23.298;2023-06-14T01:03:36;110831.34;;;-144.44;100.00
7836;BME280;3963;42.658;23.298;2023-06-14T01:06:15;110831.34;;;-144.44;100.00
7836;BME280;3963;42.658;23.298;2023-06-14T01:08:59;110831.34;;;-144.44;100.00
7836;BME280;3963;42.658;23.298;2023-06-14T01:11:33;110831.34;;;-144.44;100.00
7836;BME280;3963;42.658;23.298;2023-06-14T01:14:06;110831.34;;;-144.44;100.00
7836;BME280;3963;42.658;23.298;2023-06-14T01:16:35;110831.34;;;-144.44;100.00
7836;BME280;3963;42.658;23.298;2023-06-14T01:19:05;110831.34;;;-144.44;100.00
7836;BME280;3963;42.658;23.298;2023-06-14T01:21:35;110831.34;;;-144.44;100.00
7836;BME280;3963;42.658;23.298;2023-06-14T01:24:08;110831.34;;;-144.44;100.00
7836;BME280;3963;42.658;23.298;2023-06-14T01:26:36;110831.34;;;-144.44;100.00
7836;BME280;3963;42.658;23.298;2023-06-14T01:29:05;110831.34;;;-144.44;100.00
7836;BME280;3963;42.658;23.298;2023-06-14T01:31:34;110831.34;;;-144.44;100.00
7836;BME280;3963;42.658;23.298;2023-06-14T01:34:07;110831.34;;;-144.44;100.00
7836;BME280;3963;42.658;23.298;2023-06-14T01:36:36;110831.34;;;-144.44;100.00
7836;BME280;3963;42.658;23.298;2023-06-14T01:39:05;110831.34;;;-144.44;100.00
7836;BME280;3963;42.658;23.298;2023-06-14T01:41:35;110831.34;;;-144.44;100.00
7836;BME280;3963;42.658;23.298;2023-06-14T01:44:03;110831.34;;;-144.44;100.00
7836;BME280;3963;42.658;23.298;2023-06-14T01:46:31;110831.34;;;-144.44;100.00
7836;BME280;3963;42.658;23.298;2023-06-14T01:48:58;110831.34;;;-144.44;100.00
7836;BME280;3963;42.658;23.298;2023-06-14T01:51:26;110831.34;;;-144.44;100.00
7836;BME280;3963;42.658;23.298;2023-06-14T01:53:52;110831.34;;;-144.44;100.00
7836;BME280;3963;42.658;23.298;2023-06-14T01:56:20;110831.34;;;-144.44;100.00
7836;BME280;3963;42.658;23.298;2023-06-14T01:58:49;110831.34;;;-144.44;100.00
7836;BME280;3963;42.658;23.298;2023-06-14T02:01:15;110831.34;;;-144.44;100.00
7836;BME280;3963;42.658;23.298;2023-06-14T02:03:43;110831.34;;;-144.44;100.00
7836;BME280;3963;42.658;23.298;2023-06-14T02:06:10;110831.34;;;-144.44;100.00
7836;BME280;3963;42.658;23.298;2023-06-14T02:08:37;110831.34;;;-144.44;100.00
7836;BME280;3963;42.658;23.298;2023-06-14T02:11:04;110831.34;;;-144.44;100.00
7836;BME280;3963;42.658;23.298;2023-06-14T02:13:31;110831.34;;;-144.44;100.00
7836;BME280;3963;42.658;23.298;2023-06-14T02:15:59;110831.34;;;-144.44;100.00
7836;BME280;3963;42.658;23.298;2023-06-14T02:18:26;110831.34;;;-144.44;100.00
7836;BME280;3963;42.658;23.298;2023-06-14T02:20:53;110831.34;;;-144.44;100.00
7836;BME280;3963;42.658;23.298;2023-06-14T02:23:20;110829.34;;;-144.44;100.00
7836;BME280;3963;42.658;23.298;2023-06-14T02:25:47;110831.34;;;-144.44;100.00
7836;BME280;3963;42.658;23.298;2023-06-14T02:28:14;110829.34;;;-144.44;100.00
7836;BME280;3963;42.658;23.298;2023-06-14T02:30:40;110829.34;;;-144.44;100.00
7836;BME280;3963;42.658;23.298;2023-06-14T02:33:09;110829.34;;;-144.44;100.00
7836;BME280;3963;42.658;23.298;2023-06-14T02:35:38;110829.34;;;-144.44;100.00
7836;BME280;3963;42.658;23.298;2023-06-14T02:38:05;110829.34;;;-144.44;100.00
7836;BME280;3963;42.658;23.298;2023-06-14T02:40:32;110313.69;;;-144.44;100.00
7836;BME280;3963;42.658;23.298;2023-06-14T02:42:58;110313.69;;;-144.44;100.00
7836;BME280;3963;42.658;23.298;2023-06-14T02:45:25;110571.50;;;-144.44;100.00
7836;BME280;3963;42.658;23.298;2023-06-14T02:47:52;110571.50;;;-144.44;100.00
7836;BME280;3963;42.658;23.298;2023-06-14T02:50:22;110055.91;;;-144.44;100.00
7836;BME280;3963;42.658;23.298;2023-06-14T02:52:49;110313.69;;;-144.44;100.00
7836;BME280;3963;42.658;23.298;2023-06-14T02:55:16;109798.13;;;-144.44;100.00
7836;BME280;3963;42.658;23.298;2023-06-14T02:57:43;110055.91;;;-144.44;100.00
7836;BME280;3963;42.658;23.298;2023-06-14T03:00:11;110313.69;;;-144.44;100.00
7836;BME280;3963;42.658;23.298;2023-06-14T03:02:38;110571.50;;;-144.44;100.00
7836;BME280;3963;42.658;23.298;2023-06-14T03:05:08;110829.34;;;-144.44;100.00
7836;BME280;3963;42.658;23.298;2023-06-14T03:07:37;110831.34;;;-144.44;100.00
7836;BME280;3963;42.658;23.298;2023-06-14T03:10:07;110831.34;;;-144.44;100.00
7836;BME280;3963;42.658;23.298;2023-06-14T03:12:34;110829.34;;;-144.44;100.00
7836;BME280;3963;42.658;23.298;2023-06-14T03:15:02;110829.34;;;-144.44;100.00
7836;BME280;3963;42.658;23.298;2023-06-14T03:17:29;110829.34;;;-144.44;100.00
7836;BME280;3963;42.658;23.298;2023-06-14T03:19:59;110831.34;;;-144.44;100.00
7836;BME280;3963;42.658;23.298;2023-06-14T03:22:26;110831.34;;;-144.44;100.00
7836;BME280;3963;42.658;23.298;2023-06-14T03:24:55;110831.34;;;-144.44;100.00
7836;BME280;3963;42.658;23.298;2023-06-14T03:27:22;110831.34;;;-144.44;100.00
7836;BME280;3963;42.658;23.298;2023-06-14T03:29:49;110831.34;;;-144.44;100.00
7836;BME280;3963;42.658;23.298;2023-06-14T03:32:15;110831.34;;;-144.44;100.00
7836;BME280;3963;42.658;23.298;2023-06-14T03:34:42;110831.34;;;-144.44;100.00
7836;BME280;3963;42.658;23.298;2023-06-14T03:37:10;110831.34;;;-144.44;100.00
7836;BME280;3963;42.658;23.298;2023-06-14T03:39:37;110829.34;;;-144.44;100.00
7836;BME280;3963;42.658;23.298;2023-06-14T03:42:14;110829.34;;;-144.44;100.00
7836;BME280;3963;42.658;23.298;2023-06-14T03:44:40;110829.34;;;-144.44;100.00
7836;BME280;3963;42.658;23.298;2023-06-14T03:47:07;110571.50;;;-144.44;100.00
7836;BME280;3963;42.658;23.298;2023-06-14T03:49:35;110571.50;;;-144.44;100.00
7836;BME280;3963;42.658;23.298;2023-06-14T03:52:02;110313.69;;;-144.44;100.00
7836;BME280;3963;42.658;23.298;2023-06-14T03:54:29;110055.91;;;-144.44;100.00
7836;BME280;3963;42.658;23.298;2023-06-14T03:56:57;109798.13;;;-144.44;100.00
7836;BME280;3963;42.658;23.298;2023-06-14T03:59:26;110055.91;;;-144.44;100.00
7836;BME280;3963;42.658;23.298;2023-06-14T04:01:54;109282.66;;;-144.44;100.00
7836;BME280;3963;42.658;23.298;2023-06-14T04:04:21;109540.38;;;-144.44;100.00
7836;BME280;3963;42.658;23.298;2023-06-14T04:06:54;109540.38;;;-144.44;100.00
7836;BME280;3963;42.658;23.298;2023-06-14T04:09:22;109282.66;;;-144.44;100.00
7836;BME280;3963;42.658;23.298;2023-06-14T04:11:50;109282.66;;;-144.44;100.00
7836;BME280;3963;42.658;23.298;2023-06-14T04:14:17;109540.38;;;-144.44;100.00
7836;BME280;3963;42.658;23.298;2023-06-14T04:16:46;109540.38;;;-144.44;100.00
7836;BME280;3963;42.658;23.298;2023-06-14T04:19:13;109282.66;;;-144.44;100.00
7836;BME280;3963;42.658;23.298;2023-06-14T04:21:39;109024.94;;;-144.44;100.00
7836;BME280;3963;42.658;23.298;2023-06-14T04:24:06;109024.94;;;-144.44;100.00
7836;BME280;3963;42.658;23.298;2023-06-14T04:26:38;109540.38;;;-144.44;100.00
7836;BME280;3963;42.658;23.298;2023-06-14T04:29:05;109798.13;;;-144.44;100.00
7836;BME280;3963;42.658;23.298;2023-06-14T04:31:32;109282.66;;;-144.44;100.00
7836;BME280;3963;42.658;23.298;2023-06-14T04:34:00;108767.25;;;-144.44;100.00
7836;BME280;3963;42.658;23.298;2023-06-14T04:36:31;108251.91;;;-144.44;100.00
7836;BME280;3963;42.658;23.298;2023-06-14T04:39:00;107994.28;;;-144.44;100.00
7836;BME280;3963;42.658;23.298;2023-06-14T04:41:28;106706.38;;;-144.44;100.00
7836;BME280;3963;42.658;23.298;2023-06-14T04:43:56;105161.50;;;-144.44;100.00
7836;BME280;3963;42.658;23.298;2023-06-14T04:46:27;104904.09;;;-144.44;100.00
7836;BME280;3963;42.658;23.298;2023-06-14T04:48:54;104131.97;;;-144.44;100.00
7836;BME280;3963;42.658;23.298;2023-06-14T04:51:22;102845.47;;;-144.44;100.00
7836;BME280;3963;42.658;23.298;2023-06-14T04:53:55;104389.31;;;-144.44;100.00
7836;BME280;3963;42.658;23.298;2023-06-14T04:56:23;104389.31;;;-144.44;100.00
7836;BME280;3963;42.658;23.298;2023-06-14T04:58:51;102845.47;;;-144.44;100.00
7836;BME280;3963;42.658;23.298;2023-06-14T05:01:18;102073.81;;;-144.44;100.00
7836;BME280;3963;42.658;23.298;2023-06-14T05:03:45;98988.88;;;-144.44;100.00
7836;BME280;3963;42.658;23.298;2023-06-14T05:06:14;99759.84;;;-144.44;100.00
7836;BME280;3963;42.658;23.298;2023-06-14T05:08:42;97704.28;;;-144.44;100.00
7836;BME280;3963;42.658;23.298;2023-06-14T05:11:09;97190.59;;;-144.44;100.00
7836;BME280;3963;42.658;23.298;2023-06-14T05:13:36;97704.28;;;-144.44;100.00
7836;BME280;3963;42.658;23.298;2023-06-14T05:16:03;97190.59;;;-144.44;100.00
7836;BME280;3963;42.658;23.298;2023-06-14T05:18:30;96676.97;;;-144.44;100.00
7836;BME280;3963;42.658;23.298;2023-06-14T05:20:59;96676.97;;;-144.44;100.00
7836;BME280;3963;42.658;23.298;2023-06-14T05:23:26;98988.88;;;-144.44;100.00
7836;BME280;3963;42.658;23.298;2023-06-14T05:25:54;99245.84;;;-144.44;100.00
7836;BME280;3963;42.658;23.298;2023-06-14T05:28:21;96420.19;;;-144.44;100.00
7836;BME280;3963;42.658;23.298;2023-06-14T05:30:49;94109.97;;;-144.44;100.00
7836;BME280;3963;42.658;23.298;2023-06-14T05:33:16;94366.59;;;-144.44;100.00
7836;BME280;3963;42.658;23.298;2023-06-14T05:35:43;95136.53;;;-144.44;100.00
7836;BME280;3963;42.658;23.298;2023-06-14T05:38:09;94623.22;;;-144.44;100.00
7836;BME280;3963;42.658;23.298;2023-06-14T05:40:36;94366.59;;;-144.44;100.00
7836;BME280;3963;42.658;23.298;2023-06-14T05:43:05;95393.22;;;-144.44;100.00
7836;BME280;3963;42.658;23.298;2023-06-14T05:45:32;95906.66;;;-144.44;100.00
7836;BME280;3963;42.658;23.298;2023-06-14T05:47:59;92314.22;;;-144.44;100.00
7836;BME280;3963;42.658;23.298;2023-06-14T05:50:26;93083.72;;;-144.44;100.00
7836;BME280;3963;42.658;23.298;2023-06-14T05:52:53;92057.75;;;-144.44;100.00
7836;BME280;3963;42.658;23.298;2023-06-14T05:55:20;90775.72;;;-144.44;100.00
7836;BME280;3963;42.658;23.298;2023-06-14T05:57:46;89237.94;;;-144.44;100.00
7836;BME280;3963;42.658;23.298;2023-06-14T06:00:16;87700.81;;;-144.44;100.00
7836;BME280;3963;42.658;23.298;2023-06-14T06:02:45;88725.47;;;-144.44;100.00
7836;BME280;3963;42.658;23.298;2023-06-14T06:05:14;90006.75;;;-144.44;100.00
7836;BME280;3963;42.658;23.298;2023-06-14T06:07:42;92057.75;;;-144.44;100.00
7836;BME280;3963;42.658;23.298;2023-06-14T06:10:10;92057.75;;;-144.44;100.00
7836;BME280;3963;42.658;23.298;2023-06-14T06:12:37;91032.09;;;-144.44;100.00
7836;BME280;3963;42.658;23.298;2023-06-14T06:15:05;91288.47;;;-144.44;100.00
7836;BME280;3963;42.658;23.298;2023-06-14T06:17:38;92570.69;;;-144.44;100.00
7836;BME280;3963;42.658;23.298;2023-06-14T06:20:06;93083.72;;;-144.44;100.00
7836;BME280;3963;42.658;23.298;2023-06-14T06:22:34;92314.22;;;-144.44;100.00
7836;BME280;3963;42.658;23.298;2023-06-14T06:25:02;89237.94;;;-144.44;100.00
7836;BME280;3963;42.658;23.298;2023-06-14T06:27:29;89750.44;;;-144.44;100.00
7836;BME280;3963;42.658;23.298;2023-06-14T06:29:56;87444.69;;;-144.44;100.00
7836;BME280;3963;42.658;23.298;2023-06-14T06:32:23;88213.09;;;-144.44;100.00
7836;BME280;3963;42.658;23.298;2023-06-14T06:34:51;89494.19;;;-144.44;100.00
7836;BME280;3963;42.658;23.298;2023-06-14T06:37:19;91288.47;;;-144.44;100.00
7836;BME280;3963;42.658;23.298;2023-06-14T06:39:46;92570.69;;;-144.44;100.00
7836;BME280;3963;42.658;23.298;2023-06-14T06:42:13;90006.75;;;-144.44;100.00
7836;BME280;3963;42.658;23.298;2023-06-14T06:44:40;91801.31;;;-144.44;100.00
7836;BME280;3963;42.658;23.298;2023-06-14T06:47:07;90519.38;;;-144.44;100.00
7836;BME280;3963;42.658;23.298;2023-06-14T06:49:35;91544.88;;;-144.44;100.00
7836;BME280;3963;42.658;23.298;2023-06-14T06:52:05;88469.28;;;-144.44;100.00
7836;BME280;3963;42.658;23.298;2023-06-14T06:54:32;87188.59;;;-144.44;100.00
7836;BME280;3963;42.658;23.298;2023-06-14T06:57:00;88469.28;;;-144.44;100.00
7836;BME280;3963;42.658;23.298;2023-06-14T06:59:27;87700.81;;;-144.44;100.00
7836;BME280;3963;42.658;23.298;2023-06-14T07:01:54;84116.88;;;-144.44;100.00
7836;BME280;3963;42.658;23.298;2023-06-14T07:04:20;68035.19;;;-144.44;100.00
7836;BME280;3963;42.658;23.298;2023-06-14T07:06:48;68035.19;;;-144.44;100.00
7836;BME280;3963;42.658;23.298;2023-06-14T07:09:16;53970.06;;;-144.44;100.00
7836;BME280;3963;42.658;23.298;2023-06-14T07:11:47;50995.34;;;-144.44;100.00
7836;BME280;3963;42.658;23.298;2023-06-14T07:14:14;51525.91;;;-144.44;100.00
7836;BME280;3963;42.658;23.298;2023-06-14T07:16:41;51981.34;;;-144.44;100.00
7836;BME280;3963;42.658;23.298;2023-06-14T07:19:08;48157.72;;;-144.44;100.00
7836;BME280;3963;42.658;23.298;2023-06-14T07:21:35;48804.59;;;-144.44;100.00
7836;BME280;3963;42.658;23.298;2023-06-14T07:24:04;48211.13;;;-144.44;100.00
7836;BME280;3963;42.658;23.298;2023-06-14T07:26:33;48169.59;;;-144.44;100.00
7836;BME280;3963;42.658;23.298;2023-06-14T07:29:01;47912.47;;;-144.44;100.00
7836;BME280;3963;42.658;23.298;2023-06-14T07:31:28;49253.72;;;-144.44;100.00
7836;BME280;3963;42.658;23.298;2023-06-14T07:33:54;48642.38;;;-144.44;100.00
7836;BME280;3963;42.658;23.298;2023-06-14T07:36:22;48490.06;;;-144.44;100.00
7836;BME280;3963;42.658;23.298;2023-06-14T07:38:49;48612.69;;;-144.44;100.00
7836;BME280;3963;42.658;23.298;2023-06-14T07:41:16;49182.47;;;-144.44;100.00
7836;BME280;3963;42.658;23.298;2023-06-14T07:43:44;49506.97;;;-144.44;100.00
7836;BME280;3963;42.658;23.298;2023-06-14T07:46:11;49129.06;;;-144.44;100.00
7836;BME280;3963;42.658;23.298;2023-06-14T07:48:38;49728.59;;;-144.44;100.00
7836;BME280;3963;42.658;23.298;2023-06-14T07:51:04;49051.91;;;-144.44;100.00
7836;BME280;3963;42.658;23.298;2023-06-14T07:53:31;47702.84;;;-144.44;100.00
7836;BME280;3963;42.658;23.298;2023-06-14T07:55:58;48446.53;;;-144.44;100.00
7836;BME280;3963;42.658;23.298;2023-06-14T07:58:25;48814.47;;;-144.44;100.00
7836;BME280;3963;42.658;23.298;2023-06-14T08:00:53;48039.06;;;-144.44;100.00
7836;BME280;3963;42.658;23.298;2023-06-14T08:03:20;47651.41;;;-144.44;100.00
7836;BME280;3963;42.658;23.298;2023-06-14T08:05:48;47880.84;;;-144.44;100.00
7836;BME280;3963;42.658;23.298;2023-06-14T08:08:15;48143.88;;;-144.44;100.00
7836;BME280;3963;42.658;23.298;2023-06-14T08:10:42;48161.69;;;-144.44;100.00
7836;BME280;3963;42.658;23.298;2023-06-14T08:13:08;48304.09;;;-144.44;100.00
7836;BME280;3963;42.658;23.298;2023-06-14T08:15:35;47455.63;;;-144.44;100.00
7836;BME280;3963;42.658;23.298;2023-06-14T08:18:03;46840.66;;;-144.44;100.00
7836;BME280;3963;42.658;23.298;2023-06-14T08:20:30;46818.91;;;-144.44;100.00
7836;BME280;3963;42.658;23.298;2023-06-14T08:22:57;47643.50;;;-144.44;100.00
7836;BME280;3963;42.658;23.298;2023-06-14T08:25:24;47004.78;;;-144.44;100.00
7836;BME280;3963;42.658;23.298;2023-06-14T08:27:51;47431.91;;;-144.44;100.00
7836;BME280;3963;42.658;23.298;2023-06-14T08:30:18;47089.81;;;-144.44;100.00
7836;BME280;3963;42.658;23.298;2023-06-14T08:32:45;46892.06;;;-144.44;100.00
7836;BME280;3963;42.658;23.298;2023-06-14T08:35:13;46803.09;;;-144.44;100.00
7836;BME280;3963;42.658;23.298;2023-06-14T08:37:41;46652.84;;;-144.44;100.00
7836;BME280;3963;42.658;23.298;2023-06-14T08:40:18;46917.78;;;-144.44;100.00
7836;BME280;3963;42.658;23.298;2023-06-14T08:42:48;46811.00;;;-144.44;100.00
7836;BME280;3963;42.658;23.298;2023-06-14T08:45:17;46605.38;;;-144.44;100.00
7836;BME280;3963;42.658;23.298;2023-06-14T08:47:44;46824.84;;;-144.44;100.00
7836;BME280;3963;42.658;23.298;2023-06-14T08:50:13;46221.84;;;-144.44;100.00
7836;BME280;3963;42.658;23.298;2023-06-14T08:52:41;45998.47;;;-144.44;97.39
7836;BME280;3963;42.658;23.298;2023-06-14T08:55:16;45958.94;;;-144.44;97.85
7836;BME280;3963;42.658;23.298;2023-06-14T08:57:46;45903.59;;;-144.44;97.61
7836;BME280;3963;42.658;23.298;2023-06-14T09:00:13;46109.19;;;-144.44;100.00
7836;BME280;3963;42.658;23.298;2023-06-14T09:02:40;45929.31;;;-144.44;92.79
7836;BME280;3963;42.658;23.298;2023-06-14T09:05:09;45891.75;;;-144.44;91.55
7836;BME280;3963;42.658;23.298;2023-06-14T09:07:37;45804.78;;;-144.44;89.83
7836;BME280;3963;42.658;23.298;2023-06-14T09:10:07;45871.97;;;-144.44;92.51
7836;BME280;3963;42.658;23.298;2023-06-14T09:12:34;45905.59;;;-144.44;94.33
7836;BME280;3963;42.658;23.298;2023-06-14T09:15:01;45915.47;;;-144.44;89.79
7836;BME280;3963;42.658;23.298;2023-06-14T09:17:32;45848.25;;;-144.44;82.13
7836;BME280;3963;42.658;23.298;2023-06-14T09:20:00;45905.59;;;-144.44;85.08
7836;BME280;3963;42.658;23.298;2023-06-14T09:22:29;45871.97;;;-144.44;83.85
7836;BME280;3963;42.658;23.298;2023-06-14T09:24:58;45812.69;;;-144.44;84.91
7836;BME280;3963;42.658;23.298;2023-06-14T09:27:25;45828.50;;;-144.44;84.35
7836;BME280;3963;42.658;23.298;2023-06-14T09:29:52;45873.94;;;-144.44;84.49
7836;BME280;3963;42.658;23.298;2023-06-14T09:32:20;45842.31;;;-144.44;83.58
7836;BME280;3963;42.658;23.298;2023-06-14T09:34:47;45790.94;;;-144.44;83.71
7836;BME280;3963;42.658;23.298;2023-06-14T09:37:26;45769.19;;;-144.44;84.25
7836;BME280;3963;42.658;23.298;2023-06-14T09:39:53;45727.69;;;-144.44;84.82
7836;BME280;3963;42.658;23.298;2023-06-14T09:42:21;45779.06;;;-144.44;93.71
7836;BME280;3963;42.658;23.298;2023-06-14T09:44:52;45783.03;;;-144.44;87.40
7836;BME280;3963;42.658;23.298;2023-06-14T09:47:19;45907.56;;;-144.44;89.78
7836;BME280;3963;42.658;23.298;2023-06-14T09:49:46;45891.75;;;-144.44;81.42
7836;BME280;3963;42.658;23.298;2023-06-14T09:52:16;45947.09;;;-144.44;81.67
7836;BME280;3963;42.658;23.298;2023-06-14T09:54:44;45943.13;;;-144.44;77.44
7836;BME280;3963;42.658;23.298;2023-06-14T09:57:12;45980.69;;;-144.44;71.79
7836;BME280;3963;42.658;23.298;2023-06-14T09:59:42;45895.69;;;-144.44;68.31
7836;BME280;3963;42.658;23.298;2023-06-14T10:02:16;45842.31;;;-144.44;71.86
7836;BME280;3963;42.658;23.298;2023-06-14T10:04:49;45749.44;;;-144.44;74.22
7836;BME280;3963;42.658;23.298;2023-06-14T10:07:19;45745.47;;;-144.44;75.08
7836;BME280;3963;42.658;23.298;2023-06-14T10:09:47;45729.66;;;-144.44;76.41
7836;BME280;3963;42.658;23.298;2023-06-14T10:12:16;45763.25;;;-144.44;83.71
7836;BME280;3963;42.658;23.298;2023-06-14T10:14:48;45765.25;;;-144.44;77.46
7836;BME280;3963;42.658;23.298;2023-06-14T10:17:22;45737.56;;;-144.44;76.11
7836;BME280;3963;42.658;23.298;2023-06-14T10:19:55;45729.66;;;-144.44;76.29
7836;BME280;3963;42.658;23.298;2023-06-14T10:22:27;45832.44;;;-144.44;76.92
7836;BME280;3963;42.658;23.298;2023-06-14T10:24:55;45879.88;;;-144.44;71.34
7836;BME280;3963;42.658;23.298;2023-06-14T10:27:22;45877.91;;;-144.44;68.35
7836;BME280;3963;42.658;23.298;2023-06-14T10:30:06;45871.97;;;-144.44;66.07
7836;BME280;3963;42.658;23.298;2023-06-14T10:32:34;45937.22;;;-144.44;74.75
7836;BME280;3963;42.658;23.298;2023-06-14T10:35:04;45883.84;;;-144.44;66.51
7836;BME280;3963;42.658;23.298;2023-06-14T10:37:31;45870.00;;;-144.44;67.04
7836;BME280;3963;42.658;23.298;2023-06-14T10:39:58;45779.06;;;-144.44;66.86
7836;BME280;3963;42.658;23.298;2023-06-14T10:42:28;45757.34;;;-144.44;65.93
7836;BME280;3963;42.658;23.298;2023-06-14T10:44:55;45769.19;;;-144.44;66.69
7836;BME280;3963;42.658;23.298;2023-06-14T10:47:26;45788.97;;;-144.44;75.62
7836;BME280;3963;42.658;23.298;2023-06-14T10:49:54;45836.41;;;-144.44;66.26
7836;BME280;3963;42.658;23.298;2023-06-14T10:52:24;45860.13;;;-144.44;67.09
7836;BME280;3963;42.658;23.298;2023-06-14T10:55:00;45820.59;;;-144.44;65.57
7836;BME280;3963;42.658;23.298;2023-06-14T10:57:29;45804.78;;;-144.44;62.03
7836;BME280;3963;42.658;23.298;2023-06-14T10:59:57;45808.72;;;-144.44;64.84
7836;BME280;3963;42.658;23.298;2023-06-14T11:05:27;45785.00;;;-144.44;69.13
7836;BME280;3963;42.658;23.298;2023-06-14T11:08:15;45761.28;;;-144.44;67.45
7836;BME280;3963;42.658;23.298;2023-06-14T11:10:47;45806.75;;;-144.44;72.19
7836;BME280;3963;42.658;23.298;2023-06-14T11:13:16;45816.63;;;-144.44;71.61
7836;BME280;3963;42.658;23.298;2023-06-14T11:15:44;45755.34;;;-144.44;67.83
7836;BME280;3963;42.658;23.298;2023-06-14T11:18:13;45785.00;;;-144.44;66.36
7836;BME280;3963;42.658;23.298;2023-06-14T11:20:42;45692.09;;;-144.44;69.71
7836;BME280;3963;42.658;23.298;2023-06-14T11:23:09;45686.19;;;-144.44;69.69
7836;BME280;3963;42.658;23.298;2023-06-14T11:25:35;45731.63;;;-144.44;72.70
7836;BME280;3963;42.658;23.298;2023-06-14T11:28:03;45733.63;;;-144.44;65.92
7836;BME280;3963;42.658;23.298;2023-06-14T11:30:30;45788.97;;;-144.44;74.14
7836;BME280;3963;42.658;23.298;2023-06-14T11:32:57;45757.34;;;-144.44;69.35
7836;BME280;3963;42.658;23.298;2023-06-14T11:35:25;45753.38;;;-144.44;70.95
7836;BME280;3963;42.658;23.298;2023-06-14T11:37:53;45790.94;;;-144.44;75.80
7836;BME280;3963;42.658;23.298;2023-06-14T11:40:23;45786.97;;;-144.44;75.02
7836;BME280;3963;42.658;23.298;2023-06-14T11:42:50;45723.72;;;-144.44;71.75
7836;BME280;3963;42.658;23.298;2023-06-14T11:45:18;45682.22;;;-144.44;71.30
7836;BME280;3963;42.658;23.298;2023-06-14T11:47:44;45688.16;;;-144.44;70.80
7836;BME280;3963;42.658;23.298;2023-06-14T11:50:11;45717.81;;;-144.44;75.25
7836;BME280;3963;42.658;23.298;2023-06-14T11:52:40;45670.38;;;-144.44;68.07
7836;BME280;3963;42.658;23.298;2023-06-14T11:55:08;45660.47;;;-144.44;68.76
7836;BME280;3963;42.658;23.298;2023-06-14T11:57:36;45670.38;;;-144.44;68.95
7836;BME280;3963;42.658;23.298;2023-06-14T12:00:05;45626.88;;;-144.44;61.76
7836;BME280;3963;42.658;23.298;2023-06-14T12:02:38;45644.66;;;-144.44;65.02
7836;BME280;3963;42.658;23.298;2023-06-14T12:05:06;45646.66;;;-144.44;65.24
7836;BME280;3963;42.658;23.298;2023-06-14T12:07:35;45638.75;;;-144.44;68.42
7836;BME280;3963;42.658;23.298;2023-06-14T12:10:08;45626.88;;;-144.44;69.65
7836;BME280;3963;42.658;23.298;2023-06-14T12:12:37;45678.28;;;-144.44;69.73
7836;BME280;3963;42.658;23.298;2023-06-14T12:15:05;45642.69;;;-144.44;68.00
7836;BME280;3963;42.658;23.298;2023-06-14T12:17:33;45662.47;;;-144.44;67.43
7836;BME280;3963;42.658;23.298;2023-06-14T12:20:05;45678.28;;;-144.44;68.33
7836;BME280;3963;42.658;23.298;2023-06-14T12:22:36;45674.31;;;-144.44;68.33
7836;BME280;3963;42.658;23.298;2023-06-14T12:25:03;45636.75;;;-144.44;66.52
7836;BME280;3963;42.658;23.298;2023-06-14T12:27:31;45658.50;;;-144.44;67.00
7836;BME280;3963;42.658;23.298;2023-06-14T12:29:59;45640.72;;;-144.44;67.71
7836;BME280;3963;42.658;23.298;2023-06-14T12:32:26;45678.28;;;-144.44;69.16
7836;BME280;3963;42.658;23.298;2023-06-14T12:34:53;45668.38;;;-144.44;67.68
7836;BME280;3963;42.658;23.298;2023-06-14T12:37:20;45656.53;;;-144.44;70.55
7836;BME280;3963;42.658;23.298;2023-06-14T12:39:47;45670.38;;;-144.44;69.74
7836;BME280;3963;42.658;23.298;2023-06-14T12:42:13;45648.63;;;-144.44;67.85
7836;BME280;3963;42.658;23.298;2023-06-14T12:44:42;45630.84;;;-144.44;69.65
7836;BME280;3963;42.658;23.298;2023-06-14T12:47:09;45603.16;;;-144.44;69.30